< < Back
Terminal Aerodrome Forecast


Current Version              Previous Versions:   1  2  3  4  5  6  7  8  9  

Terminal Aerodrome Forecast

754
FTUS42 KJAX 051120
TAFGNV
TAF
KGNV 051120Z 0512/0612 00000KT P6SM FEW120 SCT250
     FM051330 04005KT P6SM SCT030 BKN250
     FM051800 05007KT P6SM VCTS BKN040CB BKN250
     FM060000 07004KT P6SM VCSH SCT030 SCT100 BKN250=

Latest METAR

422
SAUS70 KWBC 051200 RRK
MTRGNV
METAR KGNV 051153Z 00000KT 6SM BR CLR 23/22 A3002 RMK AO2 SLP162 70026
T02280222 10233 20222 53015 $


USA.gov is the U.S. government's official web portal to all federal, state and local government web resources and services.